createdAt,value
2023-01-05T00:01:53.472Z,11.80
2023-01-05T00:04:23.651Z,11.80
2023-01-05T00:06:51.805Z,11.80
2023-01-05T00:09:19.617Z,11.70
2023-01-05T00:12:05.431Z,11.70
2023-01-05T00:14:52.936Z,11.70
2023-01-05T00:17:43.969Z,11.80
2023-01-05T00:20:35.361Z,11.80
2023-01-05T00:23:03.427Z,11.80
2023-01-05T00:25:36.656Z,11.80
2023-01-05T00:28:04.136Z,11.80
2023-01-05T00:30:43.252Z,11.80
2023-01-05T00:33:12.856Z,11.80
2023-01-05T00:35:45.926Z,11.80
2023-01-05T00:38:13.157Z,11.80
2023-01-05T00:40:40.556Z,11.80
2023-01-05T00:43:07.801Z,11.90
2023-01-05T00:45:37.522Z,12.00
2023-01-05T00:48:05.912Z,12.00
2023-01-05T00:50:33.166Z,12.00
2023-01-05T00:53:00.437Z,12.00
2023-01-05T00:55:30.149Z,12.00
2023-01-05T00:57:57.404Z,12.00
2023-01-05T01:00:24.767Z,12.10
2023-01-05T01:02:57.828Z,12.00
2023-01-05T01:05:25.071Z,12.00
2023-01-05T01:07:55.526Z,12.10
2023-01-05T01:10:22.889Z,12.10
2023-01-05T01:12:50.197Z,12.00
2023-01-05T01:15:19.652Z,12.00
2023-01-05T01:17:49.090Z,11.90
2023-01-05T01:20:19.035Z,11.90
2023-01-05T01:22:48.758Z,11.80
2023-01-05T01:25:16.013Z,11.80
2023-01-05T01:27:45.561Z,11.80
2023-01-05T01:30:12.966Z,11.80
2023-01-05T01:32:40.269Z,11.80
2023-01-05T01:35:12.105Z,11.80
2023-01-05T01:37:41.762Z,11.70
2023-01-05T01:40:09.837Z,11.70
2023-01-05T01:42:37.188Z,11.60
2023-01-05T01:45:25.579Z,11.70
2023-01-05T01:47:55.920Z,11.60
2023-01-05T01:50:31.009Z,11.60
2023-01-05T01:53:06.519Z,11.60
2023-01-05T01:55:38.533Z,11.60
2023-01-05T01:58:11.338Z,11.60
2023-01-05T02:00:40.913Z,11.70
2023-01-05T02:03:08.602Z,11.70
2023-01-05T02:05:38.081Z,11.60
2023-01-05T02:08:14.151Z,11.60
2023-01-05T02:11:20.124Z,11.70
2023-01-05T02:14:07.669Z,11.70
2023-01-05T02:16:56.950Z,11.70
2023-01-05T02:19:45.862Z,11.70
2023-01-05T02:22:21.387Z,11.70
2023-01-05T02:25:09.195Z,11.80
2023-01-05T02:28:10.513Z,11.80
2023-01-05T02:30:46.960Z,11.80
2023-01-05T02:33:22.562Z,11.90
2023-01-05T02:36:30.913Z,11.90
2023-01-05T02:39:08.863Z,12.00
2023-01-05T02:41:47.270Z,12.00
2023-01-05T02:44:17.582Z,12.10
2023-01-05T02:46:46.366Z,12.10
2023-01-05T02:49:17.693Z,12.20
2023-01-05T02:52:00.003Z,12.20
2023-01-05T02:54:43.552Z,12.10
2023-01-05T02:57:15.395Z,12.10
2023-01-05T02:59:47.816Z,12.10
2023-01-05T03:02:22.835Z,12.10
2023-01-05T03:05:05.550Z,12.10
2023-01-05T03:07:37.043Z,12.10
2023-01-05T03:10:26.002Z,12.10
2023-01-05T03:13:16.134Z,12.10
2023-01-05T03:15:45.400Z,12.20
2023-01-05T03:18:17.441Z,12.20
2023-01-05T03:20:48.426Z,12.10
2023-01-05T03:23:36.549Z,12.10
2023-01-05T03:26:26.939Z,12.10
2023-01-05T03:29:15.389Z,12.20
2023-01-05T03:32:10.767Z,12.20
2023-01-05T03:35:09.639Z,12.20
2023-01-05T03:37:51.648Z,12.10
2023-01-05T03:40:29.090Z,12.10
2023-01-05T03:42:59.241Z,12.10
2023-01-05T03:45:45.572Z,12.10
2023-01-05T03:48:12.855Z,12.10
2023-01-05T03:50:42.423Z,12.20
2023-01-05T03:53:09.654Z,12.20
2023-01-05T03:55:36.937Z,12.10
2023-01-05T03:58:04.311Z,12.20
2023-01-05T04:00:34.527Z,12.20
2023-01-05T04:03:01.870Z,12.20
2023-01-05T04:05:29.218Z,12.20
2023-01-05T04:07:56.463Z,12.20
2023-01-05T04:10:23.757Z,12.10
2023-01-05T04:12:51.025Z,12.10
2023-01-05T04:15:23.033Z,12.10
2023-01-05T04:17:50.332Z,12.10
2023-01-05T04:20:22.167Z,12.20
2023-01-05T04:22:49.441Z,12.10
2023-01-05T04:25:16.794Z,12.20
2023-01-05T04:27:44.356Z,12.20
2023-01-05T04:30:14.169Z,12.20
2023-01-05T04:32:41.433Z,12.20
2023-01-05T04:35:11.855Z,12.10
2023-01-05T04:37:40.416Z,12.10
2023-01-05T04:40:08.312Z,12.20
2023-01-05T04:42:35.577Z,12.10
2023-01-05T04:45:02.889Z,12.10
2023-01-05T04:47:30.128Z,12.10
2023-01-05T04:49:57.386Z,12.10
2023-01-05T04:52:24.626Z,12.10
2023-01-05T04:54:57.002Z,12.10
2023-01-05T04:57:26.819Z,12.10
2023-01-05T04:59:54.299Z,12.10
2023-01-05T05:02:21.885Z,12.10
2023-01-05T05:04:49.285Z,12.10
2023-01-05T05:07:18.865Z,12.10
2023-01-05T05:09:48.260Z,12.10
2023-01-05T05:12:15.701Z,12.00
2023-01-05T05:14:42.972Z,12.00
2023-01-05T05:17:12.427Z,12.00
2023-01-05T05:19:42.049Z,12.00
2023-01-05T05:22:09.474Z,12.00
2023-01-05T05:24:36.743Z,12.00
2023-01-05T05:27:04.238Z,12.00
2023-01-05T05:29:33.882Z,12.00
2023-01-05T05:32:03.259Z,12.00
2023-01-05T05:34:30.523Z,12.00
2023-01-05T05:36:57.739Z,12.10
2023-01-05T05:39:24.981Z,12.10
2023-01-05T05:41:54.511Z,12.10
2023-01-05T05:44:24.037Z,12.10
2023-01-05T05:46:51.348Z,12.10
2023-01-05T05:49:21.047Z,12.10
2023-01-05T05:51:48.685Z,12.10
2023-01-05T05:54:18.830Z,12.10
2023-01-05T05:56:48.467Z,12.00
2023-01-05T05:59:15.844Z,12.10
2023-01-05T06:01:43.206Z,12.10
2023-01-05T06:04:12.752Z,12.10
2023-01-05T06:06:42.184Z,12.10
2023-01-05T06:09:09.410Z,12.10
2023-01-05T06:11:36.724Z,12.10
2023-01-05T06:14:07.668Z,12.10
2023-01-05T06:16:37.443Z,12.10
2023-01-05T06:19:04.744Z,12.20
2023-01-05T06:21:32.029Z,12.20
2023-01-05T06:24:01.979Z,12.10
2023-01-05T06:26:31.382Z,12.10
2023-01-05T06:29:00.983Z,12.20
2023-01-05T06:31:28.367Z,12.10
2023-01-05T06:33:57.979Z,12.10
2023-01-05T06:36:30.103Z,12.20
2023-01-05T06:38:59.702Z,12.10
2023-01-05T06:41:31.879Z,12.10
2023-01-05T06:43:59.139Z,12.10
2023-01-05T06:46:26.404Z,12.10
2023-01-05T06:48:53.658Z,12.10
2023-01-05T06:51:23.260Z,12.10
2023-01-05T06:53:50.556Z,12.00
2023-01-05T06:56:20.271Z,12.10
2023-01-05T06:58:49.871Z,12.00
2023-01-05T07:01:21.967Z,12.10
2023-01-05T07:03:49.316Z,12.10
2023-01-05T07:06:19.273Z,12.10
2023-01-05T07:08:46.548Z,12.00
2023-01-05T07:11:14.008Z,12.00
2023-01-05T07:13:41.302Z,12.00
2023-01-05T07:16:08.660Z,12.00
2023-01-05T07:18:36.020Z,12.00
2023-01-05T07:21:03.336Z,12.10
2023-01-05T07:23:30.646Z,12.10
2023-01-05T07:26:01.606Z,12.00
2023-01-05T07:28:31.028Z,12.00
2023-01-05T07:30:58.271Z,12.00
2023-01-05T07:33:27.978Z,12.10
2023-01-05T07:35:58.070Z,12.00
2023-01-05T07:38:25.277Z,12.00
2023-01-05T07:40:54.700Z,12.00
2023-01-05T07:43:24.084Z,12.00
2023-01-05T07:45:51.345Z,12.00
2023-01-05T07:48:23.396Z,11.90
2023-01-05T07:50:50.910Z,11.90
2023-01-05T07:53:18.196Z,11.80
2023-01-05T07:55:58.791Z,11.80
2023-01-05T07:58:27.808Z,11.90
2023-01-05T08:00:55.768Z,11.80
2023-01-05T08:03:25.402Z,11.90
2023-01-05T08:05:55.514Z,11.90
2023-01-05T08:08:25.077Z,11.90
2023-01-05T08:10:54.804Z,12.00
2023-01-05T08:13:40.528Z,12.00
2023-01-05T08:16:08.113Z,12.10
2023-01-05T08:18:37.513Z,12.10
2023-01-05T08:21:09.894Z,12.00
2023-01-05T08:23:39.919Z,12.00
2023-01-05T08:26:10.657Z,12.10
2023-01-05T08:28:38.651Z,12.10
2023-01-05T08:31:13.650Z,12.10
2023-01-05T08:33:41.038Z,12.00
2023-01-05T08:36:14.209Z,12.00
2023-01-05T08:38:48.623Z,12.20
2023-01-05T08:41:21.825Z,12.20
2023-01-05T08:43:53.816Z,12.10
2023-01-05T08:46:25.499Z,12.20
2023-01-05T08:48:57.408Z,12.20
2023-01-05T08:51:24.722Z,12.30
2023-01-05T08:53:54.351Z,12.30
2023-01-05T08:56:25.246Z,12.30
2023-01-05T08:59:00.121Z,12.40
2023-01-05T09:01:31.240Z,12.40
2023-01-05T09:03:58.630Z,12.40
2023-01-05T09:06:26.158Z,12.50
2023-01-05T09:08:55.902Z,12.60
2023-01-05T09:11:27.539Z,12.60
2023-01-05T09:13:59.677Z,12.60
2023-01-05T09:19:18.600Z,12.70
2023-01-05T09:21:46.174Z,12.70
2023-01-05T09:24:13.557Z,12.70
2023-01-05T09:26:42.242Z,12.70
2023-01-05T09:29:13.371Z,12.80
2023-01-05T09:31:43.966Z,12.70
2023-01-05T09:34:13.706Z,12.80
2023-01-05T09:36:41.098Z,12.80
2023-01-05T09:39:09.633Z,12.80
2023-01-05T09:41:47.707Z,12.90
2023-01-05T09:44:30.928Z,12.80
2023-01-05T09:47:26.263Z,12.90
2023-01-05T09:49:54.609Z,12.90
2023-01-05T09:52:23.087Z,13.00
2023-01-05T09:54:50.533Z,12.90
2023-01-05T09:57:28.057Z,13.00
2023-01-05T10:00:07.084Z,13.00
2023-01-05T10:02:54.590Z,13.10
2023-01-05T10:05:26.042Z,13.10
2023-01-05T10:08:25.182Z,13.10
2023-01-05T10:11:33.338Z,13.10
2023-01-05T10:14:15.959Z,13.00
2023-01-05T10:16:45.243Z,13.00
2023-01-05T10:19:18.861Z,13.00
2023-01-05T10:21:58.409Z,12.90
2023-01-05T10:24:45.754Z,12.90
2023-01-05T10:27:30.225Z,13.00
2023-01-05T10:30:13.728Z,13.00
2023-01-05T10:33:22.034Z,12.90
2023-01-05T10:36:48.857Z,12.90
2023-01-05T10:39:40.551Z,12.90
2023-01-05T10:42:17.351Z,12.90
2023-01-05T10:44:59.267Z,13.00
2023-01-05T10:47:29.103Z,13.20
2023-01-05T10:49:56.713Z,13.30
2023-01-05T10:52:24.146Z,13.40
2023-01-05T10:54:57.222Z,13.30
2023-01-05T10:57:36.959Z,13.20
2023-01-05T11:00:16.652Z,13.30
2023-01-05T11:02:50.326Z,13.40
2023-01-05T11:05:17.687Z,13.40
2023-01-05T11:07:48.984Z,13.50
2023-01-05T11:10:30.478Z,13.60
2023-01-05T11:13:23.576Z,13.70
2023-01-05T11:15:57.281Z,13.90
2023-01-05T11:18:35.219Z,14.30
2023-01-05T11:21:09.113Z,14.80
2023-01-05T11:23:42.917Z,15.30
2023-01-05T11:26:19.156Z,15.40
2023-01-05T11:29:10.507Z,15.70
2023-01-05T11:31:50.128Z,16.00
2023-01-05T11:34:22.990Z,16.90
2023-01-05T11:37:01.303Z,17.50
2023-01-05T11:40:03.163Z,18.30
2023-01-05T11:42:34.842Z,18.90
2023-01-05T11:45:07.741Z,18.10
2023-01-05T11:47:45.528Z,17.50
2023-01-05T11:50:47.480Z,16.90
2023-01-05T11:53:26.859Z,16.50
2023-01-05T11:56:24.235Z,16.30
2023-01-05T11:59:02.233Z,16.00
2023-01-05T12:02:17.059Z,15.60
2023-01-05T12:05:22.775Z,15.30
2023-01-05T12:08:07.557Z,15.20
2023-01-05T12:10:40.651Z,15.10
2023-01-05T12:13:19.824Z,15.20
2023-01-05T12:16:05.968Z,15.40
2023-01-05T12:18:36.302Z,15.30
2023-01-05T12:21:18.378Z,15.40
2023-01-05T12:24:30.927Z,15.60
2023-01-05T12:27:27.326Z,15.90
2023-01-05T12:34:11.231Z,15.40
2023-01-05T12:37:03.629Z,15.30
2023-01-05T12:40:12.133Z,15.00
2023-01-05T12:43:11.590Z,15.00
2023-01-05T12:45:51.068Z,15.00
2023-01-05T12:48:24.315Z,15.10
2023-01-05T12:51:12.467Z,15.10
2023-01-05T12:53:57.072Z,15.00
2023-01-05T12:56:36.203Z,14.80
2023-01-05T12:59:25.002Z,14.50
2023-01-05T13:02:23.623Z,14.50
2023-01-05T13:05:14.248Z,14.50
2023-01-05T13:07:51.497Z,14.60
2023-01-05T13:10:49.642Z,14.50
2023-01-05T13:13:35.677Z,14.20
2023-01-05T13:16:16.164Z,14.10
2023-01-05T13:18:54.639Z,14.10
2023-01-05T13:21:25.216Z,14.10
2023-01-05T13:24:06.806Z,13.90
2023-01-05T13:26:38.950Z,13.70
2023-01-05T13:29:27.565Z,13.60
2023-01-05T13:32:25.150Z,13.60
2023-01-05T13:35:10.734Z,13.70
2023-01-05T13:38:05.486Z,13.50
2023-01-05T13:40:51.459Z,13.40
2023-01-05T13:44:10.289Z,13.40
2023-01-05T13:46:49.800Z,13.40
2023-01-05T13:49:26.017Z,13.40
2023-01-05T13:52:26.140Z,13.50
2023-01-05T13:55:02.172Z,13.40
2023-01-05T13:57:37.373Z,13.60
2023-01-05T14:00:13.151Z,13.60
2023-01-05T14:02:44.864Z,13.50
2023-01-05T14:05:34.098Z,13.40
2023-01-05T14:08:05.362Z,13.50
2023-01-05T14:10:36.254Z,13.60
2023-01-05T14:13:06.850Z,13.60
2023-01-05T14:15:41.692Z,13.70
2023-01-05T14:18:13.770Z,13.70
2023-01-05T14:20:49.597Z,13.70
2023-01-05T14:23:25.365Z,13.70
2023-01-05T14:26:06.542Z,13.70
2023-01-05T14:28:33.803Z,13.80
2023-01-05T14:31:18.987Z,13.70
2023-01-05T14:33:53.811Z,13.60
2023-01-05T14:36:37.354Z,13.60
2023-01-05T14:39:19.589Z,13.40
2023-01-05T14:42:25.550Z,13.40
2023-01-05T14:45:06.787Z,13.40
2023-01-05T14:47:46.909Z,13.40
2023-01-05T14:50:34.413Z,13.50
2023-01-05T14:53:11.319Z,13.30
2023-01-05T14:56:01.535Z,13.30
2023-01-05T14:58:43.606Z,13.30
2023-01-05T15:01:18.709Z,13.50
2023-01-05T15:04:01.278Z,13.60
2023-01-05T15:06:56.229Z,13.40
2023-01-05T15:09:42.848Z,13.40
2023-01-05T15:12:19.027Z,13.40
2023-01-05T15:15:04.217Z,13.40
2023-01-05T15:18:12.829Z,13.40
2023-01-05T15:21:09.614Z,13.40
2023-01-05T15:26:29.876Z,13.30
2023-01-05T15:29:37.608Z,13.20
2023-01-05T15:32:10.625Z,13.10
2023-01-05T15:34:52.353Z,13.30
2023-01-05T15:37:38.890Z,13.20
2023-01-05T15:40:23.988Z,13.20
2023-01-05T15:42:57.224Z,13.20
2023-01-05T15:45:34.169Z,13.20
2023-01-05T15:48:13.337Z,13.20
2023-01-05T15:50:48.453Z,13.10
2023-01-05T15:53:26.878Z,13.10
2023-01-05T15:55:54.698Z,13.20
2023-01-05T15:58:26.032Z,13.30
2023-01-05T16:01:15.519Z,13.30
2023-01-05T16:03:47.258Z,13.30
2023-01-05T16:06:21.855Z,13.40
2023-01-05T16:08:54.723Z,13.30
2023-01-05T16:11:34.310Z,13.20
2023-01-05T16:14:28.905Z,13.10
2023-01-05T16:17:09.661Z,13.10
2023-01-05T16:20:02.732Z,12.90
2023-01-05T16:22:35.792Z,13.00
2023-01-05T16:25:21.127Z,13.00
2023-01-05T16:27:58.812Z,13.20
2023-01-05T16:30:37.646Z,13.20
2023-01-05T16:33:15.013Z,13.20
2023-01-05T16:35:45.120Z,13.10
2023-01-05T16:38:16.063Z,13.20
2023-01-05T16:40:49.649Z,13.20
2023-01-05T16:43:19.932Z,13.30
2023-01-05T16:45:47.532Z,13.20
2023-01-05T16:48:36.230Z,13.20
2023-01-05T16:51:28.940Z,13.20
2023-01-05T16:54:04.075Z,13.10
2023-01-05T16:56:36.477Z,13.00
2023-01-05T16:59:35.626Z,13.00
2023-01-05T17:02:03.198Z,12.90
2023-01-05T17:04:32.900Z,12.90
2023-01-05T17:07:00.925Z,12.90
2023-01-05T17:09:34.282Z,12.90
2023-01-05T17:12:01.500Z,13.00
2023-01-05T17:14:29.116Z,13.00
2023-01-05T17:17:01.530Z,12.90
2023-01-05T17:19:28.991Z,12.80
2023-01-05T17:21:59.237Z,12.90
2023-01-05T17:24:27.637Z,12.90
2023-01-05T17:26:55.076Z,12.90
2023-01-05T17:29:31.387Z,12.90
2023-01-05T17:31:58.983Z,13.00
2023-01-05T17:34:26.510Z,12.90
2023-01-05T17:36:56.573Z,13.00
2023-01-05T17:39:26.937Z,12.90
2023-01-05T17:42:14.307Z,12.90
2023-01-05T17:44:44.125Z,12.90
2023-01-05T17:47:11.439Z,12.80
2023-01-05T17:49:38.965Z,12.80
2023-01-05T17:52:07.494Z,12.80
2023-01-05T17:54:34.915Z,12.70
2023-01-05T18:02:07.381Z,12.90
2023-01-05T18:04:34.636Z,12.80
2023-01-05T18:07:01.897Z,12.80
2023-01-05T18:09:33.785Z,12.80
2023-01-05T18:12:01.351Z,12.80
2023-01-05T18:14:28.739Z,12.80
2023-01-05T18:16:58.195Z,12.80
2023-01-05T18:19:28.864Z,12.70
2023-01-05T18:21:59.980Z,12.80
2023-01-05T18:24:27.481Z,12.80
2023-01-05T18:26:59.432Z,12.80
2023-01-05T18:29:28.872Z,12.80
2023-01-05T18:31:56.234Z,12.80
2023-01-05T18:34:25.766Z,12.90
2023-01-05T18:37:01.491Z,13.00
2023-01-05T18:39:33.535Z,13.00
2023-01-05T18:42:01.161Z,13.00
2023-01-05T18:44:28.473Z,13.00
2023-01-05T18:47:00.446Z,13.00
2023-01-05T18:49:27.804Z,13.00
2023-01-05T18:51:55.177Z,13.00
2023-01-05T18:54:22.653Z,13.10
2023-01-05T18:56:53.644Z,13.10
2023-01-05T18:59:21.309Z,13.10
2023-01-05T19:01:48.615Z,13.00
2023-01-05T19:04:17.119Z,12.90
2023-01-05T19:06:44.545Z,12.90
2023-01-05T19:09:13.366Z,12.90
2023-01-05T19:11:45.736Z,12.80
2023-01-05T19:14:14.432Z,12.80
2023-01-05T19:16:42.419Z,12.80
2023-01-05T19:19:12.419Z,12.70
2023-01-05T19:21:41.560Z,12.60
2023-01-05T19:24:17.312Z,12.50
2023-01-05T19:26:45.915Z,12.50
2023-01-05T19:29:13.834Z,12.50
2023-01-05T19:31:44.367Z,12.60
2023-01-05T19:34:17.255Z,12.60
2023-01-05T19:36:48.817Z,12.60
2023-01-05T19:39:21.345Z,12.50
2023-01-05T19:41:51.394Z,12.60
2023-01-05T19:44:22.460Z,12.60
2023-01-05T19:46:53.265Z,12.70
2023-01-05T19:49:23.290Z,12.70
2023-01-05T19:51:53.681Z,12.80
2023-01-05T19:54:25.307Z,12.70
2023-01-05T19:56:59.432Z,12.60
2023-01-05T19:59:35.283Z,12.60
2023-01-05T20:02:04.431Z,12.50
2023-01-05T20:04:32.652Z,12.60
2023-01-05T20:07:03.756Z,12.60
2023-01-05T20:09:38.614Z,12.50
2023-01-05T20:12:14.762Z,12.60
2023-01-05T20:14:45.654Z,12.60
2023-01-05T20:17:15.534Z,12.60
2023-01-05T20:19:45.430Z,12.60
2023-01-05T20:22:14.556Z,12.50
2023-01-05T20:24:42.708Z,12.50
2023-01-05T20:27:15.130Z,12.50
2023-01-05T20:29:44.906Z,12.40
2023-01-05T20:32:18.911Z,12.40
2023-01-05T20:34:51.930Z,12.50
2023-01-05T20:37:20.526Z,12.50
2023-01-05T20:39:53.066Z,12.50
2023-01-05T20:42:20.326Z,12.50
2023-01-05T20:44:50.818Z,12.50
2023-01-05T20:47:20.814Z,12.60
2023-01-05T20:49:50.312Z,12.50
2023-01-05T20:52:17.898Z,12.60
2023-01-05T20:54:45.510Z,12.60
2023-01-05T20:57:13.114Z,12.50
2023-01-05T20:59:42.657Z,12.50
2023-01-05T21:02:22.991Z,12.50
2023-01-05T21:04:53.851Z,12.40
2023-01-05T21:07:21.598Z,12.40
2023-01-05T21:09:50.921Z,12.40
2023-01-05T21:12:24.545Z,12.40
2023-01-05T21:14:54.405Z,12.50
2023-01-05T21:17:23.796Z,12.50
2023-01-05T21:19:51.159Z,12.50
2023-01-05T21:22:21.484Z,12.50
2023-01-05T21:24:48.847Z,12.50
2023-01-05T21:27:16.050Z,12.50
2023-01-05T21:29:45.657Z,12.50
2023-01-05T21:32:15.382Z,12.50
2023-01-05T21:34:50.238Z,12.50
2023-01-05T21:37:19.697Z,12.50
2023-01-05T21:39:49.427Z,12.50
2023-01-05T21:42:35.349Z,12.50
2023-01-05T21:45:02.736Z,12.50
2023-01-05T21:47:29.959Z,12.40
2023-01-05T21:49:57.221Z,12.40
2023-01-05T21:52:43.427Z,12.40
2023-01-05T21:55:29.490Z,12.50
2023-01-05T21:57:59.439Z,12.50
2023-01-05T22:00:27.178Z,12.40
2023-01-05T22:02:57.345Z,12.50
2023-01-05T22:05:24.561Z,12.50
2023-01-05T22:07:53.992Z,12.60
2023-01-05T22:10:23.780Z,12.60
2023-01-05T22:12:54.944Z,12.60
2023-01-05T22:15:27.371Z,12.50
2023-01-05T22:17:54.674Z,12.40
2023-01-05T22:20:24.002Z,12.40
2023-01-05T22:22:53.519Z,12.30
2023-01-05T22:25:25.199Z,12.30
2023-01-05T22:27:52.488Z,12.30
2023-01-05T22:30:22.054Z,12.20
2023-01-05T22:32:49.313Z,12.20
2023-01-05T22:35:18.822Z,12.20
2023-01-05T22:37:46.104Z,12.20
2023-01-05T22:40:13.591Z,12.10
2023-01-05T22:42:42.996Z,12.10
2023-01-05T22:45:12.852Z,12.10
2023-01-05T22:47:44.676Z,12.10
2023-01-05T22:50:11.975Z,12.10
2023-01-05T22:52:39.228Z,12.10
2023-01-05T22:55:06.831Z,12.10
2023-01-05T22:57:36.152Z,12.10
2023-01-05T23:00:08.559Z,12.10
2023-01-05T23:02:35.833Z,12.10
2023-01-05T23:05:04.208Z,12.10
2023-01-05T23:07:36.156Z,12.30
2023-01-05T23:10:04.957Z,12.20
2023-01-05T23:12:34.279Z,12.20
2023-01-05T23:15:02.271Z,12.20
2023-01-05T23:17:31.777Z,12.20
2023-01-05T23:19:59.112Z,12.30
2023-01-05T23:22:28.970Z,12.20
2023-01-05T23:24:56.720Z,12.20
2023-01-05T23:27:26.288Z,12.30
2023-01-05T23:29:53.547Z,12.30
2023-01-05T23:32:20.831Z,12.20
2023-01-05T23:34:50.529Z,12.20
2023-01-05T23:37:22.590Z,12.20
2023-01-05T23:39:49.851Z,12.30
2023-01-05T23:42:36.145Z,12.20
2023-01-05T23:45:06.340Z,12.30
2023-01-05T23:47:33.736Z,12.30
2023-01-05T23:50:01.037Z,12.20
2023-01-05T23:52:28.258Z,12.30
2023-01-05T23:54:55.688Z,12.30
2023-01-05T23:57:25.283Z,12.30
2023-01-05T23:59:55.252Z,12.30
